createdAt,value
2022-11-27T00:00:49.562Z,101834.06
2022-11-27T00:03:17.516Z,101835.22
2022-11-27T00:05:52.193Z,101826.78
2022-11-27T00:08:20.174Z,101808.25
2022-11-27T00:10:48.005Z,101813.06
2022-11-27T00:13:15.767Z,101819.19
2022-11-27T00:15:45.020Z,101811.88
2022-11-27T00:18:13.181Z,101801.97
2022-11-27T00:20:41.262Z,101804.25
2022-11-27T00:23:09.100Z,101799.88
2022-11-27T00:25:36.901Z,101810.00
2022-11-27T00:28:04.810Z,101803.88
2022-11-27T00:30:32.676Z,101799.50
2022-11-27T00:33:01.961Z,101796.78
2022-11-27T00:35:29.735Z,101794.41
2022-11-27T00:37:57.536Z,101796.53
2022-11-27T00:40:25.376Z,101793.91
2022-11-27T00:42:53.239Z,101792.94
2022-11-27T00:45:21.272Z,101790.94
2022-11-27T00:47:49.124Z,101797.59
2022-11-27T00:50:20.855Z,101793.06
2022-11-27T00:52:49.029Z,101784.34
2022-11-27T00:55:16.826Z,101784.81
2022-11-27T00:57:44.610Z,101785.50
2022-11-27T01:00:13.103Z,101793.53
2022-11-27T01:02:40.926Z,101789.91
2022-11-27T01:05:09.189Z,101786.28
2022-11-27T01:07:38.358Z,101785.22
2022-11-27T01:10:06.841Z,101787.19
2022-11-27T01:12:34.674Z,101788.69
2022-11-27T01:15:02.509Z,101793.38
2022-11-27T01:17:30.579Z,101791.41
2022-11-27T01:19:58.377Z,101782.69
2022-11-27T01:22:26.201Z,101784.19
2022-11-27T01:24:55.347Z,101775.13
2022-11-27T01:27:23.265Z,101774.91
2022-11-27T01:29:51.307Z,101784.38
2022-11-27T01:32:19.115Z,101782.72
2022-11-27T01:34:46.927Z,101772.94
2022-11-27T01:37:14.789Z,101764.59
2022-11-27T01:39:57.476Z,101759.56
2022-11-27T01:42:26.805Z,101742.94
2022-11-27T01:44:55.909Z,101745.13
2022-11-27T01:47:30.521Z,101753.03
2022-11-27T01:50:01.435Z,101750.16
2022-11-27T01:52:33.292Z,101749.34
2022-11-27T01:55:05.623Z,101745.13
2022-11-27T01:57:38.727Z,101747.75
2022-11-27T02:00:07.887Z,101745.94
2022-11-27T02:02:35.766Z,101746.84
2022-11-27T02:05:03.714Z,101736.41
2022-11-27T02:07:33.534Z,101739.44
2022-11-27T02:10:01.492Z,101754.03
2022-11-27T02:12:34.496Z,101733.44
2022-11-27T02:15:09.361Z,101726.66
2022-11-27T02:17:41.932Z,101735.91
2022-11-27T02:20:19.191Z,101716.28
2022-11-27T02:22:57.441Z,101723.94
2022-11-27T02:25:31.895Z,101708.78
2022-11-27T02:28:06.019Z,101715.38
2022-11-27T02:30:38.482Z,101707.41
2022-11-27T02:33:09.466Z,101715.50
2022-11-27T02:35:42.175Z,101721.41
2022-11-27T02:38:12.016Z,101717.44
2022-11-27T02:40:42.413Z,101706.78
2022-11-27T02:43:12.923Z,101710.56
2022-11-27T02:45:43.741Z,101705.84
2022-11-27T02:48:13.676Z,101693.41
2022-11-27T02:50:44.051Z,101690.78
2022-11-27T02:53:13.746Z,101681.72
2022-11-27T02:55:43.760Z,101679.72
2022-11-27T02:58:14.002Z,101680.94
2022-11-27T03:00:45.556Z,101671.88
2022-11-27T03:03:15.603Z,101680.06
2022-11-27T03:05:44.763Z,101680.03
2022-11-27T03:08:15.401Z,101676.72
2022-11-27T03:10:47.236Z,101664.22
2022-11-27T03:13:15.319Z,101664.31
2022-11-27T03:15:48.860Z,101662.03
2022-11-27T03:18:22.215Z,101648.31
2022-11-27T03:20:54.435Z,101654.09
2022-11-27T03:23:22.485Z,101639.78
2022-11-27T03:25:50.319Z,101641.44
2022-11-27T03:28:18.395Z,101629.34
2022-11-27T03:30:47.799Z,101633.47
2022-11-27T03:33:15.617Z,101635.44
2022-11-27T03:35:43.464Z,101634.22
2022-11-27T03:38:11.284Z,101636.19
2022-11-27T03:40:46.072Z,101633.94
2022-11-27T03:43:15.327Z,101643.47
2022-11-27T03:45:49.990Z,101646.69
2022-11-27T03:48:24.394Z,101642.72
2022-11-27T03:50:57.668Z,101643.13
2022-11-27T03:53:28.103Z,101637.63
2022-11-27T03:56:04.203Z,101637.63
2022-11-27T03:58:36.921Z,101639.59
2022-11-27T04:01:06.693Z,101644.53
2022-11-27T04:03:36.608Z,101646.00
2022-11-27T04:06:04.814Z,101632.75
2022-11-27T04:08:32.878Z,101629.50
2022-11-27T04:11:00.883Z,101622.34
2022-11-27T04:13:28.653Z,101610.59
2022-11-27T04:15:56.541Z,101612.47
2022-11-27T04:18:24.396Z,101606.72
2022-11-27T04:20:53.592Z,101601.41
2022-11-27T04:23:21.619Z,101588.38
2022-11-27T04:25:49.685Z,101581.41
2022-11-27T04:28:18.074Z,101590.94
2022-11-27T04:30:45.883Z,101588.38
2022-11-27T04:33:13.692Z,101578.09
2022-11-27T04:35:41.705Z,101575.97
2022-11-27T04:38:10.864Z,101573.03
2022-11-27T04:40:38.684Z,101561.84
2022-11-27T04:43:06.505Z,101559.63
2022-11-27T04:45:34.411Z,101555.16
2022-11-27T04:48:02.444Z,101550.44
2022-11-27T04:50:30.284Z,101563.53
2022-11-27T04:52:58.118Z,101565.41
2022-11-27T04:55:27.376Z,101553.13
2022-11-27T04:57:55.174Z,101544.53
2022-11-27T05:00:23.211Z,101530.16
2022-11-27T05:02:51.080Z,101530.97
2022-11-27T05:05:18.946Z,101526.09
2022-11-27T05:07:47.010Z,101533.19
2022-11-27T05:10:14.871Z,101526.31
2022-11-27T05:12:44.376Z,101521.50
2022-11-27T05:15:12.515Z,101520.69
2022-11-27T05:17:40.408Z,101525.75
2022-11-27T05:20:08.865Z,101529.16
2022-11-27T05:22:36.746Z,101532.56
2022-11-27T05:25:04.985Z,101524.44
2022-11-27T05:27:32.798Z,101534.09
2022-11-27T05:30:01.978Z,101523.44
2022-11-27T05:32:29.885Z,101532.16
2022-11-27T05:34:57.824Z,101520.16
2022-11-27T05:37:26.011Z,101514.63
2022-11-27T05:39:53.878Z,101511.91
2022-11-27T05:42:21.737Z,101515.22
2022-11-27T05:44:53.908Z,101509.00
2022-11-27T05:47:26.134Z,101506.38
2022-11-27T05:49:54.024Z,101507.91
2022-11-27T05:52:22.013Z,101502.25
2022-11-27T05:54:49.828Z,101505.53
2022-11-27T05:57:17.602Z,101493.81
2022-11-27T05:59:49.060Z,101494.19
2022-11-27T06:02:21.754Z,101494.81
2022-11-27T06:04:52.008Z,101497.66
2022-11-27T06:07:20.152Z,101489.91
2022-11-27T06:09:48.064Z,101486.63
2022-11-27T06:12:15.874Z,101494.09
2022-11-27T06:14:43.783Z,101482.38
2022-11-27T06:17:11.910Z,101484.31
2022-11-27T06:19:39.823Z,101481.69
2022-11-27T06:22:09.037Z,101486.63
2022-11-27T06:24:36.844Z,101485.22
2022-11-27T06:27:04.794Z,101478.06
2022-11-27T06:29:32.853Z,101468.94
2022-11-27T06:32:00.753Z,101475.94
2022-11-27T06:34:28.655Z,101469.19
2022-11-27T06:36:56.456Z,101473.31
2022-11-27T06:39:25.593Z,101469.19
2022-11-27T06:41:53.606Z,101464.69
2022-11-27T06:44:21.543Z,101469.47
2022-11-27T06:46:49.364Z,101471.03
2022-11-27T06:49:17.211Z,101459.09
2022-11-27T06:51:45.007Z,101469.47
2022-11-27T06:54:12.950Z,101471.03
2022-11-27T06:56:42.208Z,101466.28
2022-11-27T06:59:14.415Z,101467.34
2022-11-27T07:01:42.789Z,101458.47
2022-11-27T07:04:11.774Z,101452.63
2022-11-27T07:06:40.120Z,101452.81
2022-11-27T07:09:08.187Z,101458.06
2022-11-27T07:11:36.173Z,101449.63
2022-11-27T07:14:05.923Z,101443.75
2022-11-27T07:16:34.729Z,101437.44
2022-11-27T07:19:03.629Z,101432.41
2022-11-27T07:21:31.524Z,101430.28
2022-11-27T07:23:59.591Z,101435.72
2022-11-27T07:26:28.920Z,101436.72
2022-11-27T07:28:57.301Z,101442.00
2022-11-27T07:31:28.506Z,101435.88
2022-11-27T07:33:57.153Z,101436.94
2022-11-27T07:36:25.854Z,101431.88
2022-11-27T07:38:53.970Z,101427.94
2022-11-27T07:41:21.835Z,101423.72
2022-11-27T07:43:49.804Z,101414.47
2022-11-27T07:46:19.282Z,101409.84
2022-11-27T07:48:48.817Z,101404.09
2022-11-27T07:51:18.015Z,101410.75
2022-11-27T07:53:46.095Z,101416.94
2022-11-27T07:56:14.625Z,101418.75
2022-11-27T07:58:42.636Z,101403.66
2022-11-27T08:01:11.795Z,101397.00
2022-11-27T08:03:39.706Z,101393.69
2022-11-27T08:06:15.982Z,101397.25
2022-11-27T08:08:44.514Z,101394.53
2022-11-27T08:11:19.781Z,101404.66
2022-11-27T08:13:47.979Z,101395.13
2022-11-27T08:16:16.129Z,101382.50
2022-11-27T08:18:44.040Z,101378.78
2022-11-27T08:21:11.869Z,101381.72
2022-11-27T08:23:41.395Z,101379.44
2022-11-27T08:26:10.698Z,101373.56
2022-11-27T08:28:38.975Z,101365.00
2022-11-27T08:31:07.989Z,101380.88
2022-11-27T08:33:36.227Z,101369.84
2022-11-27T08:36:04.309Z,101366.44
2022-11-27T08:38:32.148Z,101357.41
2022-11-27T08:41:05.422Z,101355.50
2022-11-27T08:43:36.245Z,101358.03
2022-11-27T08:46:04.954Z,101358.38
2022-11-27T08:48:32.813Z,101360.84
2022-11-27T08:51:00.664Z,101352.47
2022-11-27T08:53:28.514Z,101358.72
2022-11-27T08:55:56.484Z,101347.63
2022-11-27T08:58:25.648Z,101349.84
2022-11-27T09:00:53.486Z,101350.09
2022-11-27T09:03:21.360Z,101357.97
2022-11-27T09:05:49.233Z,101343.78
2022-11-27T09:08:21.375Z,101342.47
2022-11-27T09:10:49.343Z,101348.53
2022-11-27T09:13:17.210Z,101345.31
2022-11-27T09:15:46.337Z,101346.81
2022-11-27T09:18:16.066Z,101344.41
2022-11-27T09:20:43.950Z,101337.66
2022-11-27T09:23:14.504Z,101342.59
2022-11-27T09:25:44.898Z,101340.94
2022-11-27T09:28:13.031Z,101342.84
2022-11-27T09:30:40.842Z,101333.25
2022-11-27T09:33:09.998Z,101322.28
2022-11-27T09:35:38.216Z,101325.50
2022-11-27T09:38:06.364Z,101323.53
2022-11-27T09:40:35.004Z,101321.31
2022-11-27T09:43:09.510Z,101321.06
2022-11-27T09:45:42.608Z,101312.03
2022-11-27T09:48:17.640Z,101316.69
2022-11-27T09:50:51.254Z,101317.81
2022-11-27T09:53:23.542Z,101315.72
2022-11-27T09:56:01.595Z,101308.66
2022-11-27T09:58:36.761Z,101307.06
2022-11-27T10:01:11.638Z,101316.38
2022-11-27T10:03:41.449Z,101301.66
2022-11-27T10:06:21.080Z,101301.69
2022-11-27T10:08:53.309Z,101301.13
2022-11-27T10:11:28.460Z,101296.19
2022-11-27T10:14:04.732Z,101289.63
2022-11-27T10:16:41.375Z,101295.03
2022-11-27T10:19:19.469Z,101292.28
2022-11-27T10:21:50.235Z,101291.72
2022-11-27T10:24:21.344Z,101297.44
2022-11-27T10:26:50.027Z,101287.28
2022-11-27T10:29:26.399Z,101287.66
2022-11-27T10:31:57.424Z,101292.09
2022-11-27T10:34:32.346Z,101281.44
2022-11-27T10:37:02.023Z,101288.53
2022-11-27T10:39:33.907Z,101280.59
2022-11-27T10:42:10.603Z,101277.84
2022-11-27T10:44:40.788Z,101277.03
2022-11-27T10:47:11.228Z,101274.31
2022-11-27T10:49:42.736Z,101279.78
2022-11-27T10:52:14.006Z,101270.44
2022-11-27T10:54:42.760Z,101262.50
2022-11-27T10:57:30.021Z,101262.84
2022-11-27T11:00:04.945Z,101251.84
2022-11-27T11:02:34.992Z,101244.47
2022-11-27T11:05:56.986Z,101245.09
2022-11-27T11:08:16.909Z,101233.59
2022-11-27T11:10:50.397Z,101227.84
2022-11-27T11:13:20.441Z,101229.78
2022-11-27T11:15:51.949Z,101226.25
2022-11-27T11:18:20.844Z,101222.69
2022-11-27T11:20:52.263Z,101213.13
2022-11-27T11:23:22.823Z,101217.47
2022-11-27T11:25:51.621Z,101207.91
2022-11-27T11:28:20.852Z,101204.63
2022-11-27T11:30:57.872Z,101208.69
2022-11-27T11:33:27.199Z,101196.91
2022-11-27T11:36:01.210Z,101191.13
2022-11-27T11:38:31.967Z,101180.47
2022-11-27T11:41:01.998Z,101177.47
2022-11-27T11:43:30.873Z,101180.19
2022-11-27T11:46:07.065Z,101175.31
2022-11-27T11:48:35.304Z,101178.13
2022-11-27T11:51:08.992Z,101169.94
2022-11-27T11:53:39.942Z,101158.47
2022-11-27T11:56:17.664Z,101153.56
2022-11-27T11:58:52.418Z,101149.75
2022-11-27T12:01:27.889Z,101138.81
2022-11-27T12:04:03.228Z,101129.00
2022-11-27T12:06:43.422Z,101111.59
2022-11-27T12:09:18.119Z,101112.34
2022-11-27T12:11:50.039Z,101107.16
2022-11-27T12:14:25.742Z,101098.97
2022-11-27T12:17:05.522Z,101097.31
2022-11-27T12:19:42.711Z,101088.94
2022-11-27T12:22:19.862Z,101074.75
2022-11-27T12:24:52.319Z,101082.41
2022-11-27T12:27:29.287Z,101072.84
2022-11-27T12:30:06.224Z,101069.09
2022-11-27T12:32:46.779Z,101050.59
2022-11-27T12:35:27.755Z,101037.00
2022-11-27T12:38:01.963Z,101030.19
2022-11-27T12:40:36.485Z,101011.09
2022-11-27T12:43:09.388Z,101019.88
2022-11-27T12:45:39.833Z,101002.69
2022-11-27T12:48:13.471Z,101014.69
2022-11-27T12:50:43.405Z,101007.31
2022-11-27T12:53:23.178Z,101047.38
2022-11-27T12:55:57.102Z,101042.75
2022-11-27T12:58:27.947Z,101035.91
2022-11-27T13:01:08.943Z,101023.38
2022-11-27T13:03:41.622Z,101027.16
2022-11-27T13:06:12.144Z,101022.50
2022-11-27T13:08:52.222Z,101022.75
2022-11-27T13:11:24.892Z,101022.19
2022-11-27T13:13:54.792Z,101014.81
2022-11-27T13:16:26.194Z,101016.19
2022-11-27T13:18:57.469Z,101012.63
2022-11-27T13:21:27.859Z,101004.63
2022-11-27T13:24:00.731Z,100995.63
2022-11-27T13:26:31.424Z,100992.06
2022-11-27T13:29:01.219Z,100994.78
2022-11-27T13:31:30.466Z,101000.00
2022-11-27T13:34:00.349Z,100989.59
2022-11-27T13:36:34.709Z,100985.31
2022-11-27T13:39:06.129Z,100973.31
2022-11-27T13:41:34.769Z,100976.91
2022-11-27T13:44:04.227Z,100969.88
2022-11-27T13:46:44.954Z,100969.09
2022-11-27T13:49:22.263Z,100972.34
2022-11-27T13:51:50.222Z,100973.44
2022-11-27T13:54:25.885Z,100972.06
2022-11-27T13:56:56.780Z,100970.38
2022-11-27T13:59:26.018Z,100963.84
2022-11-27T14:01:54.512Z,100964.34
2022-11-27T14:04:22.354Z,100955.63
2022-11-27T14:06:53.423Z,100958.63
2022-11-27T14:09:32.402Z,100952.06
2022-11-27T14:12:00.423Z,100959.72
2022-11-27T14:14:29.297Z,100948.78
2022-11-27T14:16:58.488Z,100956.16
2022-11-27T14:19:34.358Z,100961.63
2022-11-27T14:22:03.227Z,100960.00
2022-11-27T14:24:41.292Z,100962.78
2022-11-27T14:27:17.457Z,100963.34
2022-11-27T14:29:46.042Z,100957.53
2022-11-27T14:32:15.277Z,100965.22
2022-11-27T14:34:44.935Z,100959.78
2022-11-27T14:37:23.979Z,100956.44
2022-11-27T14:39:53.543Z,100943.09
2022-11-27T14:42:27.892Z,100947.16
2022-11-27T14:45:03.849Z,100948.22
2022-11-27T14:47:33.015Z,100936.50
2022-11-27T14:50:01.299Z,100945.78
2022-11-27T14:52:29.243Z,100946.66
2022-11-27T14:54:58.626Z,100939.50
2022-11-27T14:57:28.071Z,100941.19
2022-11-27T15:00:04.759Z,100956.75
2022-11-27T15:02:33.248Z,100957.06
2022-11-27T15:05:05.252Z,100949.16
2022-11-27T15:07:41.888Z,100943.16
2022-11-27T15:10:32.076Z,100940.44
2022-11-27T15:13:03.389Z,100932.31
2022-11-27T15:15:34.606Z,100941.34
2022-11-27T15:18:06.564Z,100941.09
2022-11-27T15:20:36.895Z,100934.53
2022-11-27T15:23:06.500Z,100930.75
2022-11-27T15:25:37.692Z,100931.88
2022-11-27T15:28:25.646Z,100928.06
2022-11-27T15:30:54.259Z,100917.44
2022-11-27T15:33:26.197Z,100912.53
2022-11-27T15:35:56.438Z,100904.63
2022-11-27T15:38:28.590Z,100885.56
2022-11-27T15:41:01.080Z,100881.75
2022-11-27T15:43:29.051Z,100860.22
2022-11-27T15:45:57.105Z,100864.31
2022-11-27T15:48:26.807Z,100862.13
2022-11-27T15:50:54.678Z,100861.59
2022-11-27T15:53:22.524Z,100851.78
2022-11-27T15:55:50.518Z,100851.19
2022-11-27T15:58:19.657Z,100851.47
2022-11-27T16:00:47.534Z,100844.91
2022-11-27T16:03:15.604Z,100859.63
2022-11-27T16:05:43.434Z,100859.91
2022-11-27T16:08:11.750Z,100858.00
2022-11-27T16:10:40.524Z,100855.00
2022-11-27T16:13:08.381Z,100853.38
2022-11-27T16:15:37.546Z,100851.47
2022-11-27T16:18:07.022Z,100853.34
2022-11-27T16:20:35.030Z,100847.91
2022-11-27T16:23:02.836Z,100845.72
2022-11-27T16:25:30.651Z,100834.28
2022-11-27T16:28:02.778Z,100828.81
2022-11-27T16:30:31.396Z,100830.72
2022-11-27T16:33:00.612Z,100810.03
2022-11-27T16:35:28.455Z,100798.31
2022-11-27T16:37:56.263Z,100802.97
2022-11-27T16:40:24.572Z,100800.75
2022-11-27T16:42:52.561Z,100792.53
2022-11-27T16:45:23.172Z,100784.88
2022-11-27T16:47:50.966Z,100783.84
2022-11-27T16:50:20.200Z,100784.41
2022-11-27T16:52:53.978Z,100777.03
2022-11-27T16:55:22.548Z,100775.13
2022-11-27T16:57:50.384Z,100797.22
2022-11-27T17:00:18.718Z,100786.84
2022-11-27T17:02:46.607Z,100777.03
2022-11-27T17:05:14.473Z,100785.50
2022-11-27T17:07:43.913Z,100785.47
2022-11-27T17:10:11.866Z,100775.41
2022-11-27T17:12:39.739Z,100770.78
2022-11-27T17:15:07.994Z,100766.69
2022-11-27T17:17:40.158Z,100772.16
2022-11-27T17:20:09.588Z,100770.78
2022-11-27T17:22:37.499Z,100768.59
2022-11-27T17:25:10.927Z,100749.25
2022-11-27T17:27:38.940Z,100752.53
2022-11-27T17:30:07.419Z,100747.88
2022-11-27T17:32:35.229Z,100744.91
2022-11-27T17:35:03.055Z,100746.00
2022-11-27T17:37:30.923Z,100741.63
2022-11-27T17:39:59.024Z,100746.53
2022-11-27T17:42:28.392Z,100732.63
2022-11-27T17:44:56.369Z,100726.38
2022-11-27T17:47:24.240Z,100732.94
2022-11-27T17:49:52.068Z,100723.66
2022-11-27T17:52:20.081Z,100716.56
2022-11-27T17:54:47.921Z,100713.88
2022-11-27T17:57:15.757Z,100716.31
2022-11-27T17:59:45.024Z,100711.66
2022-11-27T18:02:12.902Z,100704.91
2022-11-27T18:04:40.952Z,100709.59
2022-11-27T18:07:08.790Z,100708.81
2022-11-27T18:09:36.740Z,100700.66
2022-11-27T18:12:06.280Z,100702.59
2022-11-27T18:14:38.092Z,100692.81
2022-11-27T18:17:10.603Z,100696.34
2022-11-27T18:19:42.885Z,100688.47
2022-11-27T18:22:13.167Z,100682.50
2022-11-27T18:24:44.769Z,100678.69
2022-11-27T18:27:21.185Z,100673.47
2022-11-27T18:29:50.112Z,100672.06
2022-11-27T18:32:20.015Z,100673.97
2022-11-27T18:34:48.301Z,100668.75
2022-11-27T18:37:16.306Z,100673.09
2022-11-27T18:39:45.324Z,100659.13
2022-11-27T18:42:14.264Z,100651.78
2022-11-27T18:44:44.986Z,100650.13
2022-11-27T18:47:13.580Z,100641.69
2022-11-27T18:49:43.290Z,100640.88
2022-11-27T18:52:14.231Z,100638.78
2022-11-27T18:54:42.724Z,100628.44
2022-11-27T18:57:11.084Z,100626.25
2022-11-27T18:59:39.434Z,100610.47
2022-11-27T19:02:07.956Z,100609.94
2022-11-27T19:04:36.382Z,100610.47
2022-11-27T19:07:05.767Z,100613.75
2022-11-27T19:09:33.733Z,100607.50
2022-11-27T19:12:01.568Z,100614.56
2022-11-27T19:14:29.481Z,100607.47
2022-11-27T19:16:58.404Z,100605.31
2022-11-27T19:19:53.459Z,100607.19
2022-11-27T19:22:17.026Z,100610.50
2022-11-27T19:24:45.044Z,100619.25
2022-11-27T19:27:13.096Z,100610.00
2022-11-27T19:29:41.749Z,100614.66
2022-11-27T19:32:11.746Z,100611.97
2022-11-27T19:34:43.045Z,100610.31
2022-11-27T19:37:11.231Z,100608.94
2022-11-27T19:39:44.198Z,100611.66
2022-11-27T19:42:12.294Z,100602.41
2022-11-27T19:44:40.712Z,100598.59
2022-11-27T19:47:09.624Z,100597.53
2022-11-27T19:49:37.707Z,100588.00
2022-11-27T19:52:05.881Z,100580.66
2022-11-27T19:54:33.958Z,100575.13
2022-11-27T19:57:04.328Z,100575.69
2022-11-27T19:59:32.356Z,100575.91
2022-11-27T20:02:00.404Z,100572.38
2022-11-27T20:04:28.409Z,100590.09
2022-11-27T20:06:56.279Z,100588.78
2022-11-27T20:09:24.498Z,100586.28
2022-11-27T20:11:52.833Z,100583.47
2022-11-27T20:14:22.453Z,100581.09
2022-11-27T20:16:50.437Z,100573.78
2022-11-27T20:19:19.080Z,100576.56
2022-11-27T20:21:46.940Z,100563.22
2022-11-27T20:24:15.124Z,100561.31
2022-11-27T20:26:43.362Z,100559.41
2022-11-27T20:29:11.955Z,100558.31
2022-11-27T20:31:43.731Z,100558.06
2022-11-27T20:34:15.812Z,100556.13
2022-11-27T20:36:43.822Z,100551.16
2022-11-27T20:39:16.337Z,100554.97
2022-11-27T20:41:47.634Z,100551.72
2022-11-27T20:44:16.556Z,100546.81
2022-11-27T20:46:46.113Z,100542.72
2022-11-27T20:49:13.936Z,100546.78
2022-11-27T20:51:42.468Z,100537.47
2022-11-27T20:54:11.850Z,100519.44
2022-11-27T20:56:40.877Z,100517.31
2022-11-27T20:59:08.833Z,100515.72
2022-11-27T21:01:37.343Z,100523.38
2022-11-27T21:04:17.100Z,100521.69
2022-11-27T21:06:45.850Z,100515.13
2022-11-27T21:09:14.603Z,100513.53
2022-11-27T21:11:42.890Z,100507.59
2022-11-27T21:14:12.340Z,100500.72
2022-11-27T21:16:41.795Z,100498.56
2022-11-27T21:19:16.945Z,100498.50
2022-11-27T21:21:44.912Z,100496.59
2022-11-27T21:24:13.725Z,100494.41
2022-11-27T21:26:41.781Z,100484.66
2022-11-27T21:29:09.947Z,100484.91
2022-11-27T21:31:39.371Z,100479.97
2022-11-27T21:34:11.375Z,100472.91
2022-11-27T21:36:40.597Z,100461.25
2022-11-27T21:39:09.348Z,100463.38
2022-11-27T21:41:37.416Z,100462.31
2022-11-27T21:44:05.677Z,100460.69
2022-11-27T21:46:36.176Z,100451.94
2022-11-27T21:49:05.890Z,100455.38
2022-11-27T21:51:33.700Z,100457.22
2022-11-27T21:54:02.852Z,100455.59
2022-11-27T21:56:34.557Z,100446.88
2022-11-27T21:59:03.053Z,100434.09
2022-11-27T22:01:31.041Z,100421.28
2022-11-27T22:03:58.981Z,100421.34
2022-11-27T22:06:28.494Z,100425.19
2022-11-27T22:09:03.134Z,100416.75
2022-11-27T22:11:34.316Z,100413.41
2022-11-27T22:14:07.376Z,100408.72
2022-11-27T22:16:40.028Z,100411.16
2022-11-27T22:19:14.040Z,100413.59
2022-11-27T22:21:42.061Z,100415.47
2022-11-27T22:24:15.135Z,100414.66
2022-11-27T22:26:48.210Z,100412.53
2022-11-27T22:29:19.610Z,100412.59
2022-11-27T22:31:47.572Z,100420.34
2022-11-27T22:34:18.967Z,100425.88
2022-11-27T22:36:47.007Z,100424.91
2022-11-27T22:39:14.793Z,100418.97
2022-11-27T22:41:43.004Z,100412.78
2022-11-27T22:44:14.037Z,100412.06
2022-11-27T22:46:42.309Z,100404.34
2022-11-27T22:49:11.197Z,100409.78
2022-11-27T22:51:39.573Z,100412.50
2022-11-27T22:54:07.989Z,100410.31
2022-11-27T22:56:36.245Z,100412.97
2022-11-27T22:59:31.828Z,100415.72
2022-11-27T23:01:54.762Z,100403.28
2022-11-27T23:04:22.788Z,100400.66
2022-11-27T23:06:50.621Z,100396.38
2022-11-27T23:09:18.851Z,100392.13
2022-11-27T23:11:47.096Z,100398.16
2022-11-27T23:14:14.927Z,100400.63
2022-11-27T23:16:43.260Z,100391.66
2022-11-27T23:19:13.030Z,100395.25
2022-11-27T23:21:40.976Z,100390.63
2022-11-27T23:24:13.560Z,100386.28
2022-11-27T23:26:41.812Z,100373.28
2022-11-27T23:29:10.290Z,100371.19
2022-11-27T23:31:39.016Z,100373.38
2022-11-27T23:34:08.282Z,100369.03
2022-11-27T23:36:38.484Z,100374.19
2022-11-27T23:39:07.775Z,100376.69
2022-11-27T23:41:35.590Z,100359.84
2022-11-27T23:44:04.698Z,100357.13
2022-11-27T23:46:32.576Z,100362.28
2022-11-27T23:49:01.018Z,100358.50
2022-11-27T23:51:30.049Z,100362.56
2022-11-27T23:53:59.509Z,100349.28
2022-11-27T23:56:28.199Z,100340.81
2022-11-27T23:58:56.586Z,100333.78
